sensor_id;sensor_type;location;lat;lon;timestamp;P1;durP1;ratioP1;P2;durP2;ratioP2
64816;SDS011;69411;45.656;11.740;2024-03-22T00:00:33;58.92;;;33.13;;
64816;SDS011;69411;45.656;11.740;2024-03-22T00:02:59;57.22;;;32.20;;
64816;SDS011;69411;45.656;11.740;2024-03-22T00:05:25;56.40;;;32.20;;
64816;SDS011;69411;45.656;11.740;2024-03-22T00:07:51;58.67;;;31.42;;
64816;SDS011;69411;45.656;11.740;2024-03-22T00:10:17;71.45;;;38.55;;
64816;SDS011;69411;45.656;11.740;2024-03-22T00:12:43;66.18;;;35.28;;
64816;SDS011;69411;45.656;11.740;2024-03-22T00:15:09;60.40;;;32.60;;
64816;SDS011;69411;45.656;11.740;2024-03-22T00:17:35;56.58;;;32.10;;
64816;SDS011;69411;45.656;11.740;2024-03-22T00:20:01;61.25;;;31.33;;
64816;SDS011;69411;45.656;11.740;2024-03-22T00:22:27;64.72;;;32.63;;
64816;SDS011;69411;45.656;11.740;2024-03-22T00:24:53;55.90;;;28.63;;
64816;SDS011;69411;45.656;11.740;2024-03-22T00:27:19;51.95;;;28.58;;
64816;SDS011;69411;45.656;11.740;2024-03-22T00:29:45;55.53;;;29.90;;
64816;SDS011;69411;45.656;11.740;2024-03-22T00:32:11;50.25;;;27.40;;
64816;SDS011;69411;45.656;11.740;2024-03-22T00:34:37;59.15;;;32.95;;
64816;SDS011;69411;45.656;11.740;2024-03-22T00:37:03;56.95;;;30.63;;
64816;SDS011;69411;45.656;11.740;2024-03-22T00:39:29;52.40;;;28.33;;
64816;SDS011;69411;45.656;11.740;2024-03-22T00:41:55;52.97;;;28.02;;
64816;SDS011;69411;45.656;11.740;2024-03-22T00:44:21;50.80;;;27.73;;
64816;SDS011;69411;45.656;11.740;2024-03-22T00:46:47;50.30;;;28.33;;
64816;SDS011;69411;45.656;11.740;2024-03-22T00:49:13;53.70;;;29.13;;
64816;SDS011;69411;45.656;11.740;2024-03-22T00:51:39;47.03;;;26.13;;
64816;SDS011;69411;45.656;11.740;2024-03-22T00:54:05;52.83;;;28.50;;
64816;SDS011;69411;45.656;11.740;2024-03-22T00:56:31;45.15;;;26.33;;
64816;SDS011;69411;45.656;11.740;2024-03-22T00:58:57;50.15;;;27.10;;
64816;SDS011;69411;45.656;11.740;2024-03-22T01:01:23;47.92;;;25.00;;
64816;SDS011;69411;45.656;11.740;2024-03-22T01:03:49;48.15;;;25.95;;
64816;SDS011;69411;45.656;11.740;2024-03-22T01:06:15;42.28;;;25.30;;
64816;SDS011;69411;45.656;11.740;2024-03-22T01:08:41;45.28;;;24.60;;
64816;SDS011;69411;45.656;11.740;2024-03-22T01:11:07;44.38;;;25.00;;
64816;SDS011;69411;45.656;11.740;2024-03-22T01:13:33;45.95;;;24.27;;
64816;SDS011;69411;45.656;11.740;2024-03-22T01:16:17;44.15;;;22.65;;
64816;SDS011;69411;45.656;11.740;2024-03-22T01:18:43;48.60;;;24.65;;
64816;SDS011;69411;45.656;11.740;2024-03-22T01:21:09;41.63;;;22.83;;
64816;SDS011;69411;45.656;11.740;2024-03-22T01:23:35;42.83;;;23.65;;
64816;SDS011;69411;45.656;11.740;2024-03-22T01:26:01;41.63;;;23.52;;
64816;SDS011;69411;45.656;11.740;2024-03-22T01:28:27;40.05;;;22.30;;
64816;SDS011;69411;45.656;11.740;2024-03-22T01:30:53;46.85;;;23.90;;
64816;SDS011;69411;45.656;11.740;2024-03-22T01:33:19;39.38;;;21.38;;
64816;SDS011;69411;45.656;11.740;2024-03-22T01:35:45;48.42;;;24.83;;
64816;SDS011;69411;45.656;11.740;2024-03-22T01:38:11;41.78;;;22.02;;
64816;SDS011;69411;45.656;11.740;2024-03-22T01:40:37;42.30;;;22.63;;
64816;SDS011;69411;45.656;11.740;2024-03-22T01:43:03;44.20;;;22.73;;
64816;SDS011;69411;45.656;11.740;2024-03-22T01:45:31;37.15;;;20.95;;
64816;SDS011;69411;45.656;11.740;2024-03-22T01:47:59;41.53;;;22.27;;
64816;SDS011;69411;45.656;11.740;2024-03-22T01:50:25;36.28;;;20.80;;
64816;SDS011;69411;45.656;11.740;2024-03-22T01:52:53;39.08;;;21.33;;
64816;SDS011;69411;45.656;11.740;2024-03-22T01:55:19;39.22;;;21.25;;
64816;SDS011;69411;45.656;11.740;2024-03-22T01:57:45;40.08;;;21.75;;
64816;SDS011;69411;45.656;11.740;2024-03-22T02:00:12;37.05;;;19.58;;
64816;SDS011;69411;45.656;11.740;2024-03-22T02:02:39;40.75;;;21.20;;
64816;SDS011;69411;45.656;11.740;2024-03-22T02:05:11;36.70;;;20.00;;
64816;SDS011;69411;45.656;11.740;2024-03-22T02:07:41;39.40;;;21.70;;
64816;SDS011;69411;45.656;11.740;2024-03-22T02:10:08;38.17;;;21.55;;
64816;SDS011;69411;45.656;11.740;2024-03-22T02:12:38;37.35;;;20.65;;
64816;SDS011;69411;45.656;11.740;2024-03-22T02:15:04;39.30;;;21.42;;
64816;SDS011;69411;45.656;11.740;2024-03-22T02:17:32;45.70;;;24.00;;
64816;SDS011;69411;45.656;11.740;2024-03-22T02:19:58;46.28;;;24.02;;
64816;SDS011;69411;45.656;11.740;2024-03-22T02:22:26;40.30;;;22.88;;
64816;SDS011;69411;45.656;11.740;2024-03-22T02:24:52;46.13;;;24.83;;
64816;SDS011;69411;45.656;11.740;2024-03-22T02:27:18;44.50;;;23.33;;
64816;SDS011;69411;45.656;11.740;2024-03-22T02:29:44;42.63;;;22.00;;
64816;SDS011;69411;45.656;11.740;2024-03-22T02:32:10;43.42;;;22.73;;
64816;SDS011;69411;45.656;11.740;2024-03-22T02:34:36;43.60;;;23.77;;
64816;SDS011;69411;45.656;11.740;2024-03-22T02:37:03;44.35;;;22.48;;
64816;SDS011;69411;45.656;11.740;2024-03-22T02:39:29;43.05;;;22.33;;
64816;SDS011;69411;45.656;11.740;2024-03-22T02:41:56;42.05;;;22.58;;
64816;SDS011;69411;45.656;11.740;2024-03-22T02:44:22;45.58;;;23.67;;
64816;SDS011;69411;45.656;11.740;2024-03-22T02:46:47;47.33;;;23.95;;
64816;SDS011;69411;45.656;11.740;2024-03-22T02:49:14;45.00;;;23.02;;
64816;SDS011;69411;45.656;11.740;2024-03-22T02:51:40;44.72;;;22.08;;
64816;SDS011;69411;45.656;11.740;2024-03-22T02:54:06;45.58;;;22.00;;
64816;SDS011;69411;45.656;11.740;2024-03-22T02:56:31;44.13;;;21.70;;
64816;SDS011;69411;45.656;11.740;2024-03-22T02:58:58;47.05;;;22.73;;
64816;SDS011;69411;45.656;11.740;2024-03-22T03:01:24;41.85;;;21.75;;
64816;SDS011;69411;45.656;11.740;2024-03-22T03:03:50;40.80;;;21.33;;
64816;SDS011;69411;45.656;11.740;2024-03-22T03:06:16;41.03;;;20.98;;
64816;SDS011;69411;45.656;11.740;2024-03-22T03:08:44;40.13;;;21.13;;
64816;SDS011;69411;45.656;11.740;2024-03-22T03:11:10;39.95;;;20.63;;
64816;SDS011;69411;45.656;11.740;2024-03-22T03:13:37;39.75;;;20.02;;
64816;SDS011;69411;45.656;11.740;2024-03-22T03:16:03;43.08;;;21.23;;
64816;SDS011;69411;45.656;11.740;2024-03-22T03:18:29;37.53;;;20.95;;
64816;SDS011;69411;45.656;11.740;2024-03-22T03:20:55;38.45;;;19.30;;
64816;SDS011;69411;45.656;11.740;2024-03-22T03:23:21;36.78;;;20.13;;
64816;SDS011;69411;45.656;11.740;2024-03-22T03:25:47;37.38;;;19.27;;
64816;SDS011;69411;45.656;11.740;2024-03-22T03:28:13;32.22;;;17.42;;
64816;SDS011;69411;45.656;11.740;2024-03-22T03:30:39;35.88;;;18.77;;
64816;SDS011;69411;45.656;11.740;2024-03-22T03:33:05;34.38;;;18.50;;
64816;SDS011;69411;45.656;11.740;2024-03-22T03:35:31;35.90;;;19.17;;
64816;SDS011;69411;45.656;11.740;2024-03-22T03:37:57;34.83;;;19.88;;
64816;SDS011;69411;45.656;11.740;2024-03-22T03:40:23;38.13;;;19.02;;
64816;SDS011;69411;45.656;11.740;2024-03-22T03:42:50;36.88;;;18.90;;
64816;SDS011;69411;45.656;11.740;2024-03-22T03:45:16;37.60;;;18.92;;
64816;SDS011;69411;45.656;11.740;2024-03-22T03:47:42;32.72;;;18.17;;
64816;SDS011;69411;45.656;11.740;2024-03-22T03:50:08;32.08;;;17.67;;
64816;SDS011;69411;45.656;11.740;2024-03-22T03:52:34;33.50;;;16.98;;
64816;SDS011;69411;45.656;11.740;2024-03-22T03:55:00;33.33;;;17.33;;
64816;SDS011;69411;45.656;11.740;2024-03-22T03:57:26;34.30;;;17.05;;
64816;SDS011;69411;45.656;11.740;2024-03-22T03:59:52;27.40;;;15.55;;
64816;SDS011;69411;45.656;11.740;2024-03-22T04:02:18;37.80;;;16.40;;
64816;SDS011;69411;45.656;11.740;2024-03-22T04:04:44;31.20;;;14.88;;
64816;SDS011;69411;45.656;11.740;2024-03-22T04:07:10;32.08;;;15.40;;
64816;SDS011;69411;45.656;11.740;2024-03-22T04:09:36;29.00;;;14.38;;
64816;SDS011;69411;45.656;11.740;2024-03-22T04:12:02;29.17;;;14.70;;
64816;SDS011;69411;45.656;11.740;2024-03-22T04:14:28;28.80;;;15.35;;
64816;SDS011;69411;45.656;11.740;2024-03-22T04:16:54;27.40;;;14.18;;
64816;SDS011;69411;45.656;11.740;2024-03-22T04:19:21;27.80;;;14.25;;
64816;SDS011;69411;45.656;11.740;2024-03-22T04:21:47;27.88;;;14.73;;
64816;SDS011;69411;45.656;11.740;2024-03-22T04:24:15;27.30;;;13.65;;
64816;SDS011;69411;45.656;11.740;2024-03-22T04:26:41;29.05;;;15.13;;
64816;SDS011;69411;45.656;11.740;2024-03-22T04:29:07;30.75;;;14.15;;
64816;SDS011;69411;45.656;11.740;2024-03-22T04:31:33;28.75;;;14.35;;
64816;SDS011;69411;45.656;11.740;2024-03-22T04:33:59;28.77;;;14.55;;
64816;SDS011;69411;45.656;11.740;2024-03-22T04:36:25;30.55;;;15.20;;
64816;SDS011;69411;45.656;11.740;2024-03-22T04:38:51;27.58;;;14.52;;
64816;SDS011;69411;45.656;11.740;2024-03-22T04:41:17;28.67;;;14.10;;
64816;SDS011;69411;45.656;11.740;2024-03-22T04:43:43;30.00;;;14.35;;
64816;SDS011;69411;45.656;11.740;2024-03-22T04:46:09;31.63;;;14.43;;
64816;SDS011;69411;45.656;11.740;2024-03-22T04:48:35;28.48;;;13.95;;
64816;SDS011;69411;45.656;11.740;2024-03-22T04:51:00;28.00;;;14.20;;
64816;SDS011;69411;45.656;11.740;2024-03-22T04:53:26;30.42;;;14.15;;
64816;SDS011;69411;45.656;11.740;2024-03-22T04:55:53;27.98;;;13.25;;
64816;SDS011;69411;45.656;11.740;2024-03-22T04:58:19;26.80;;;13.38;;
64816;SDS011;69411;45.656;11.740;2024-03-22T05:00:48;28.50;;;12.95;;
64816;SDS011;69411;45.656;11.740;2024-03-22T05:03:15;24.38;;;12.90;;
64816;SDS011;69411;45.656;11.740;2024-03-22T05:05:41;26.45;;;13.90;;
64816;SDS011;69411;45.656;11.740;2024-03-22T05:08:08;27.65;;;13.75;;
64816;SDS011;69411;45.656;11.740;2024-03-22T05:11:02;27.20;;;14.57;;
64816;SDS011;69411;45.656;11.740;2024-03-22T05:13:28;28.50;;;12.95;;
64816;SDS011;69411;45.656;11.740;2024-03-22T05:15:54;24.52;;;12.57;;
64816;SDS011;69411;45.656;11.740;2024-03-22T05:18:20;28.73;;;13.98;;
64816;SDS011;69411;45.656;11.740;2024-03-22T05:20:46;28.55;;;13.88;;
64816;SDS011;69411;45.656;11.740;2024-03-22T05:23:12;27.60;;;13.82;;
64816;SDS011;69411;45.656;11.740;2024-03-22T05:25:38;25.45;;;12.77;;
64816;SDS011;69411;45.656;11.740;2024-03-22T05:28:04;23.42;;;12.55;;
64816;SDS011;69411;45.656;11.740;2024-03-22T05:30:30;26.98;;;13.55;;
64816;SDS011;69411;45.656;11.740;2024-03-22T05:32:56;28.08;;;13.98;;
64816;SDS011;69411;45.656;11.740;2024-03-22T05:35:22;29.27;;;15.07;;
64816;SDS011;69411;45.656;11.740;2024-03-22T05:37:48;28.25;;;14.13;;
64816;SDS011;69411;45.656;11.740;2024-03-22T05:40:14;42.72;;;23.48;;
64816;SDS011;69411;45.656;11.740;2024-03-22T05:42:41;39.90;;;22.02;;
64816;SDS011;69411;45.656;11.740;2024-03-22T05:45:07;33.45;;;18.25;;
64816;SDS011;69411;45.656;11.740;2024-03-22T05:47:34;31.13;;;17.67;;
64816;SDS011;69411;45.656;11.740;2024-03-22T05:50:00;29.02;;;16.30;;
64816;SDS011;69411;45.656;11.740;2024-03-22T05:52:27;26.90;;;15.38;;
64816;SDS011;69411;45.656;11.740;2024-03-22T05:54:53;22.90;;;13.50;;
64816;SDS011;69411;45.656;11.740;2024-03-22T05:57:19;26.20;;;13.20;;
64816;SDS011;69411;45.656;11.740;2024-03-22T05:59:45;24.83;;;13.40;;
64816;SDS011;69411;45.656;11.740;2024-03-22T06:02:11;24.67;;;13.77;;
64816;SDS011;69411;45.656;11.740;2024-03-22T06:04:36;23.08;;;13.38;;
64816;SDS011;69411;45.656;11.740;2024-03-22T06:07:02;23.17;;;13.40;;
64816;SDS011;69411;45.656;11.740;2024-03-22T06:09:29;23.05;;;12.65;;
64816;SDS011;69411;45.656;11.740;2024-03-22T06:12:21;21.45;;;12.23;;
64816;SDS011;69411;45.656;11.740;2024-03-22T06:14:47;19.20;;;11.45;;
64816;SDS011;69411;45.656;11.740;2024-03-22T06:17:13;19.55;;;10.82;;
64816;SDS011;69411;45.656;11.740;2024-03-22T06:19:40;16.83;;;9.88;;
64816;SDS011;69411;45.656;11.740;2024-03-22T06:22:06;14.27;;;8.88;;
64816;SDS011;69411;45.656;11.740;2024-03-22T06:24:32;16.05;;;8.68;;
64816;SDS011;69411;45.656;11.740;2024-03-22T06:26:58;16.60;;;8.85;;
64816;SDS011;69411;45.656;11.740;2024-03-22T06:29:24;15.07;;;8.75;;
64816;SDS011;69411;45.656;11.740;2024-03-22T06:31:50;16.27;;;9.05;;
64816;SDS011;69411;45.656;11.740;2024-03-22T06:34:17;13.85;;;8.27;;
64816;SDS011;69411;45.656;11.740;2024-03-22T06:36:43;12.80;;;7.75;;
64816;SDS011;69411;45.656;11.740;2024-03-22T06:39:09;14.13;;;8.65;;
64816;SDS011;69411;45.656;11.740;2024-03-22T06:41:35;15.63;;;9.05;;
64816;SDS011;69411;45.656;11.740;2024-03-22T06:44:01;14.20;;;8.95;;
64816;SDS011;69411;45.656;11.740;2024-03-22T06:46:28;16.95;;;9.75;;
64816;SDS011;69411;45.656;11.740;2024-03-22T06:48:54;18.63;;;10.55;;
64816;SDS011;69411;45.656;11.740;2024-03-22T06:51:20;19.50;;;11.02;;
64816;SDS011;69411;45.656;11.740;2024-03-22T06:53:46;16.58;;;9.43;;
64816;SDS011;69411;45.656;11.740;2024-03-22T06:56:13;18.08;;;9.95;;
64816;SDS011;69411;45.656;11.740;2024-03-22T06:58:39;15.10;;;8.90;;
64816;SDS011;69411;45.656;11.740;2024-03-22T07:01:05;16.77;;;9.43;;
64816;SDS011;69411;45.656;11.740;2024-03-22T07:03:32;17.40;;;9.35;;
64816;SDS011;69411;45.656;11.740;2024-03-22T07:05:58;16.75;;;9.38;;
64816;SDS011;69411;45.656;11.740;2024-03-22T07:08:25;16.27;;;9.43;;
64816;SDS011;69411;45.656;11.740;2024-03-22T07:10:53;15.98;;;9.20;;
64816;SDS011;69411;45.656;11.740;2024-03-22T07:13:19;16.23;;;8.85;;
64816;SDS011;69411;45.656;11.740;2024-03-22T07:15:46;14.88;;;8.82;;
64816;SDS011;69411;45.656;11.740;2024-03-22T07:18:13;13.98;;;8.55;;
64816;SDS011;69411;45.656;11.740;2024-03-22T07:20:39;12.45;;;7.88;;
64816;SDS011;69411;45.656;11.740;2024-03-22T07:23:06;12.63;;;7.97;;
64816;SDS011;69411;45.656;11.740;2024-03-22T07:25:33;18.98;;;10.43;;
64816;SDS011;69411;45.656;11.740;2024-03-22T07:27:58;16.23;;;9.88;;
64816;SDS011;69411;45.656;11.740;2024-03-22T07:30:24;17.65;;;10.23;;
64816;SDS011;69411;45.656;11.740;2024-03-22T07:32:50;17.73;;;11.38;;
64816;SDS011;69411;45.656;11.740;2024-03-22T07:35:16;18.48;;;10.90;;
64816;SDS011;69411;45.656;11.740;2024-03-22T07:37:42;17.23;;;10.48;;
64816;SDS011;69411;45.656;11.740;2024-03-22T07:40:10;18.08;;;10.38;;
64816;SDS011;69411;45.656;11.740;2024-03-22T07:42:36;18.98;;;10.32;;
64816;SDS011;69411;45.656;11.740;2024-03-22T07:45:02;21.52;;;12.25;;
64816;SDS011;69411;45.656;11.740;2024-03-22T07:47:29;36.70;;;20.88;;
64816;SDS011;69411;45.656;11.740;2024-03-22T07:49:55;37.75;;;20.40;;
64816;SDS011;69411;45.656;11.740;2024-03-22T07:52:21;46.25;;;23.50;;
64816;SDS011;69411;45.656;11.740;2024-03-22T07:54:47;41.90;;;23.35;;
64816;SDS011;69411;45.656;11.740;2024-03-22T07:57:13;48.08;;;25.35;;
64816;SDS011;69411;45.656;11.740;2024-03-22T07:59:39;47.63;;;25.83;;
64816;SDS011;69411;45.656;11.740;2024-03-22T08:02:05;54.35;;;27.92;;
64816;SDS011;69411;45.656;11.740;2024-03-22T08:04:31;73.18;;;39.72;;
64816;SDS011;69411;45.656;11.740;2024-03-22T08:06:57;61.83;;;33.17;;
64816;SDS011;69411;45.656;11.740;2024-03-22T08:09:23;60.97;;;32.95;;
64816;SDS011;69411;45.656;11.740;2024-03-22T08:11:49;48.17;;;26.98;;
64816;SDS011;69411;45.656;11.740;2024-03-22T08:14:14;40.95;;;22.55;;
64816;SDS011;69411;45.656;11.740;2024-03-22T08:16:41;41.20;;;22.80;;
64816;SDS011;69411;45.656;11.740;2024-03-22T08:19:07;32.05;;;18.27;;
64816;SDS011;69411;45.656;11.740;2024-03-22T08:21:33;25.80;;;15.13;;
64816;SDS011;69411;45.656;11.740;2024-03-22T08:23:59;22.95;;;12.05;;
64816;SDS011;69411;45.656;11.740;2024-03-22T08:26:25;18.60;;;10.18;;
64816;SDS011;69411;45.656;11.740;2024-03-22T08:28:51;17.10;;;9.57;;
64816;SDS011;69411;45.656;11.740;2024-03-22T08:31:18;16.52;;;9.20;;
64816;SDS011;69411;45.656;11.740;2024-03-22T08:33:50;13.65;;;8.45;;
64816;SDS011;69411;45.656;11.740;2024-03-22T08:36:17;13.38;;;7.97;;
64816;SDS011;69411;45.656;11.740;2024-03-22T08:38:43;12.30;;;7.32;;
64816;SDS011;69411;45.656;11.740;2024-03-22T08:41:09;12.27;;;7.65;;
64816;SDS011;69411;45.656;11.740;2024-03-22T08:43:36;12.02;;;7.68;;
64816;SDS011;69411;45.656;11.740;2024-03-22T08:46:02;10.35;;;7.05;;
64816;SDS011;69411;45.656;11.740;2024-03-22T08:48:28;10.60;;;6.63;;
64816;SDS011;69411;45.656;11.740;2024-03-22T08:50:54;13.30;;;8.27;;
64816;SDS011;69411;45.656;11.740;2024-03-22T08:53:20;13.10;;;8.05;;
64816;SDS011;69411;45.656;11.740;2024-03-22T08:55:46;10.00;;;6.57;;
64816;SDS011;69411;45.656;11.740;2024-03-22T08:58:14;11.95;;;7.40;;
64816;SDS011;69411;45.656;11.740;2024-03-22T09:00:41;12.55;;;7.47;;
64816;SDS011;69411;45.656;11.740;2024-03-22T09:03:07;10.52;;;6.47;;
64816;SDS011;69411;45.656;11.740;2024-03-22T09:05:33;10.27;;;6.82;;
64816;SDS011;69411;45.656;11.740;2024-03-22T09:07:59;14.57;;;7.22;;
64816;SDS011;69411;45.656;11.740;2024-03-22T09:10:26;9.52;;;6.80;;
64816;SDS011;69411;45.656;11.740;2024-03-22T09:12:52;11.85;;;6.40;;
64816;SDS011;69411;45.656;11.740;2024-03-22T09:15:17;10.98;;;6.85;;
64816;SDS011;69411;45.656;11.740;2024-03-22T09:17:44;11.65;;;7.22;;
64816;SDS011;69411;45.656;11.740;2024-03-22T09:20:10;13.23;;;7.75;;
64816;SDS011;69411;45.656;11.740;2024-03-22T09:22:36;13.77;;;7.03;;
64816;SDS011;69411;45.656;11.740;2024-03-22T09:25:04;11.60;;;7.40;;
64816;SDS011;69411;45.656;11.740;2024-03-22T09:27:31;8.73;;;5.60;;
64816;SDS011;69411;45.656;11.740;2024-03-22T09:29:57;11.63;;;5.85;;
64816;SDS011;69411;45.656;11.740;2024-03-22T09:32:23;11.50;;;6.15;;
64816;SDS011;69411;45.656;11.740;2024-03-22T09:34:49;12.18;;;6.30;;
64816;SDS011;69411;45.656;11.740;2024-03-22T09:37:17;10.93;;;6.03;;
64816;SDS011;69411;45.656;11.740;2024-03-22T09:39:43;11.02;;;7.18;;
64816;SDS011;69411;45.656;11.740;2024-03-22T09:42:13;13.20;;;7.70;;
64816;SDS011;69411;45.656;11.740;2024-03-22T09:44:48;12.60;;;7.25;;
64816;SDS011;69411;45.656;11.740;2024-03-22T09:47:15;9.07;;;5.72;;
64816;SDS011;69411;45.656;11.740;2024-03-22T09:49:42;6.43;;;4.57;;
64816;SDS011;69411;45.656;11.740;2024-03-22T09:52:14;9.73;;;5.00;;
64816;SDS011;69411;45.656;11.740;2024-03-22T09:54:43;7.35;;;4.70;;
64816;SDS011;69411;45.656;11.740;2024-03-22T09:57:09;5.13;;;3.65;;
64816;SDS011;69411;45.656;11.740;2024-03-22T09:59:43;7.03;;;3.72;;
64816;SDS011;69411;45.656;11.740;2024-03-22T10:02:13;7.60;;;4.70;;
64816;SDS011;69411;45.656;11.740;2024-03-22T10:04:40;7.60;;;4.47;;
64816;SDS011;69411;45.656;11.740;2024-03-22T10:07:06;9.48;;;5.55;;
64816;SDS011;69411;45.656;11.740;2024-03-22T10:09:35;10.13;;;4.97;;
64816;SDS011;69411;45.656;11.740;2024-03-22T10:12:02;7.13;;;4.50;;
64816;SDS011;69411;45.656;11.740;2024-03-22T10:14:29;7.57;;;4.20;;
64816;SDS011;69411;45.656;11.740;2024-03-22T10:16:56;8.80;;;5.00;;
64816;SDS011;69411;45.656;11.740;2024-03-22T10:19:22;6.57;;;4.10;;
64816;SDS011;69411;45.656;11.740;2024-03-22T10:22:00;8.88;;;5.07;;
64816;SDS011;69411;45.656;11.740;2024-03-22T10:24:28;8.52;;;5.50;;
64816;SDS011;69411;45.656;11.740;2024-03-22T10:26:54;6.95;;;4.38;;
64816;SDS011;69411;45.656;11.740;2024-03-22T10:29:20;9.07;;;5.57;;
64816;SDS011;69411;45.656;11.740;2024-03-22T10:31:47;17.80;;;5.80;;
64816;SDS011;69411;45.656;11.740;2024-03-22T10:34:15;10.52;;;5.13;;
64816;SDS011;69411;45.656;11.740;2024-03-22T10:36:43;11.48;;;7.18;;
64816;SDS011;69411;45.656;11.740;2024-03-22T10:39:12;11.10;;;6.10;;
64816;SDS011;69411;45.656;11.740;2024-03-22T10:41:42;17.60;;;7.47;;
64816;SDS011;69411;45.656;11.740;2024-03-22T10:44:10;11.27;;;6.43;;
64816;SDS011;69411;45.656;11.740;2024-03-22T10:46:36;12.82;;;6.68;;
64816;SDS011;69411;45.656;11.740;2024-03-22T10:49:03;9.90;;;6.38;;
64816;SDS011;69411;45.656;11.740;2024-03-22T10:51:32;10.18;;;6.15;;
64816;SDS011;69411;45.656;11.740;2024-03-22T10:54:02;10.05;;;6.32;;
64816;SDS011;69411;45.656;11.740;2024-03-22T10:56:30;11.35;;;6.30;;
64816;SDS011;69411;45.656;11.740;2024-03-22T10:58:57;11.50;;;6.88;;
64816;SDS011;69411;45.656;11.740;2024-03-22T11:01:29;11.57;;;6.70;;
64816;SDS011;69411;45.656;11.740;2024-03-22T11:04:07;10.50;;;6.30;;
64816;SDS011;69411;45.656;11.740;2024-03-22T11:06:38;10.15;;;6.45;;
64816;SDS011;69411;45.656;11.740;2024-03-22T11:09:05;11.05;;;6.38;;
64816;SDS011;69411;45.656;11.740;2024-03-22T11:11:59;8.38;;;5.50;;
64816;SDS011;69411;45.656;11.740;2024-03-22T11:14:25;9.40;;;5.68;;
64816;SDS011;69411;45.656;11.740;2024-03-22T11:16:52;9.80;;;4.93;;
64816;SDS011;69411;45.656;11.740;2024-03-22T11:19:18;9.35;;;5.72;;
64816;SDS011;69411;45.656;11.740;2024-03-22T11:21:44;8.75;;;4.97;;
64816;SDS011;69411;45.656;11.740;2024-03-22T11:24:10;7.57;;;4.60;;
64816;SDS011;69411;45.656;11.740;2024-03-22T11:26:36;6.95;;;4.50;;
64816;SDS011;69411;45.656;11.740;2024-03-22T11:29:02;8.73;;;5.20;;
64816;SDS011;69411;45.656;11.740;2024-03-22T11:31:28;9.23;;;5.00;;
64816;SDS011;69411;45.656;11.740;2024-03-22T11:33:55;8.68;;;5.05;;
64816;SDS011;69411;45.656;11.740;2024-03-22T11:36:22;7.00;;;4.95;;
64816;SDS011;69411;45.656;11.740;2024-03-22T11:38:48;10.05;;;6.22;;
64816;SDS011;69411;45.656;11.740;2024-03-22T11:41:18;11.20;;;5.70;;
64816;SDS011;69411;45.656;11.740;2024-03-22T11:43:49;10.95;;;6.10;;
64816;SDS011;69411;45.656;11.740;2024-03-22T11:46:16;10.60;;;6.03;;
64816;SDS011;69411;45.656;11.740;2024-03-22T11:48:43;11.18;;;6.28;;
64816;SDS011;69411;45.656;11.740;2024-03-22T11:51:09;12.48;;;7.25;;
64816;SDS011;69411;45.656;11.740;2024-03-22T11:53:35;14.80;;;8.18;;
64816;SDS011;69411;45.656;11.740;2024-03-22T11:56:05;12.95;;;7.25;;
64816;SDS011;69411;45.656;11.740;2024-03-22T11:58:33;13.90;;;8.23;;
64816;SDS011;69411;45.656;11.740;2024-03-22T12:00:59;14.82;;;8.45;;
64816;SDS011;69411;45.656;11.740;2024-03-22T12:03:25;16.17;;;9.63;;
64816;SDS011;69411;45.656;11.740;2024-03-22T12:05:52;14.38;;;8.90;;
64816;SDS011;69411;45.656;11.740;2024-03-22T12:08:20;12.95;;;8.00;;
64816;SDS011;69411;45.656;11.740;2024-03-22T12:10:46;13.15;;;8.52;;
64816;SDS011;69411;45.656;11.740;2024-03-22T12:13:12;13.65;;;8.32;;
64816;SDS011;69411;45.656;11.740;2024-03-22T12:15:38;11.77;;;7.22;;
64816;SDS011;69411;45.656;11.740;2024-03-22T12:18:04;14.90;;;8.82;;
64816;SDS011;69411;45.656;11.740;2024-03-22T12:20:30;14.65;;;9.00;;
64816;SDS011;69411;45.656;11.740;2024-03-22T12:23:01;15.90;;;8.65;;
64816;SDS011;69411;45.656;11.740;2024-03-22T12:25:28;18.83;;;9.95;;
64816;SDS011;69411;45.656;11.740;2024-03-22T12:28:13;15.27;;;8.88;;
64816;SDS011;69411;45.656;11.740;2024-03-22T12:30:40;13.25;;;8.40;;
64816;SDS011;69411;45.656;11.740;2024-03-22T12:33:09;15.32;;;8.82;;
64816;SDS011;69411;45.656;11.740;2024-03-22T12:35:36;14.48;;;8.57;;
64816;SDS011;69411;45.656;11.740;2024-03-22T12:38:04;14.40;;;9.07;;
64816;SDS011;69411;45.656;11.740;2024-03-22T12:40:31;16.00;;;9.05;;
64816;SDS011;69411;45.656;11.740;2024-03-22T12:42:58;11.85;;;7.97;;
64816;SDS011;69411;45.656;11.740;2024-03-22T12:45:25;17.05;;;9.77;;
64816;SDS011;69411;45.656;11.740;2024-03-22T12:47:51;13.77;;;8.95;;
64816;SDS011;69411;45.656;11.740;2024-03-22T12:50:18;15.90;;;9.60;;
64816;SDS011;69411;45.656;11.740;2024-03-22T12:53:03;14.98;;;8.63;;
64816;SDS011;69411;45.656;11.740;2024-03-22T12:55:30;13.70;;;8.80;;
64816;SDS011;69411;45.656;11.740;2024-03-22T12:57:57;13.75;;;8.45;;
64816;SDS011;69411;45.656;11.740;2024-03-22T13:00:23;13.55;;;8.63;;
64816;SDS011;69411;45.656;11.740;2024-03-22T13:02:50;14.65;;;8.73;;
64816;SDS011;69411;45.656;11.740;2024-03-22T13:05:16;13.02;;;7.88;;
64816;SDS011;69411;45.656;11.740;2024-03-22T13:07:42;12.70;;;7.45;;
64816;SDS011;69411;45.656;11.740;2024-03-22T13:10:08;11.35;;;7.63;;
64816;SDS011;69411;45.656;11.740;2024-03-22T13:12:35;17.35;;;10.10;;
64816;SDS011;69411;45.656;11.740;2024-03-22T13:15:02;14.38;;;8.75;;
64816;SDS011;69411;45.656;11.740;2024-03-22T13:17:28;14.00;;;8.70;;
64816;SDS011;69411;45.656;11.740;2024-03-22T13:19:54;15.38;;;7.97;;
64816;SDS011;69411;45.656;11.740;2024-03-22T13:22:20;14.70;;;8.18;;
64816;SDS011;69411;45.656;11.740;2024-03-22T13:24:46;13.82;;;8.43;;
64816;SDS011;69411;45.656;11.740;2024-03-22T13:27:12;15.75;;;8.80;;
64816;SDS011;69411;45.656;11.740;2024-03-22T13:29:41;12.07;;;8.13;;
64816;SDS011;69411;45.656;11.740;2024-03-22T13:32:07;14.90;;;8.30;;
64816;SDS011;69411;45.656;11.740;2024-03-22T13:34:34;15.35;;;9.13;;
64816;SDS011;69411;45.656;11.740;2024-03-22T13:37:01;14.35;;;8.55;;
64816;SDS011;69411;45.656;11.740;2024-03-22T13:39:27;17.25;;;11.00;;
64816;SDS011;69411;45.656;11.740;2024-03-22T13:41:55;17.52;;;10.10;;
64816;SDS011;69411;45.656;11.740;2024-03-22T13:44:22;14.75;;;9.90;;
64816;SDS011;69411;45.656;11.740;2024-03-22T13:46:50;16.60;;;9.18;;
64816;SDS011;69411;45.656;11.740;2024-03-22T13:49:17;14.85;;;9.40;;
64816;SDS011;69411;45.656;11.740;2024-03-22T13:51:49;15.68;;;9.10;;
64816;SDS011;69411;45.656;11.740;2024-03-22T13:54:15;17.65;;;9.18;;
64816;SDS011;69411;45.656;11.740;2024-03-22T13:56:41;15.20;;;9.40;;
64816;SDS011;69411;45.656;11.740;2024-03-22T13:59:08;13.43;;;8.65;;
64816;SDS011;69411;45.656;11.740;2024-03-22T14:01:35;14.43;;;8.52;;
64816;SDS011;69411;45.656;11.740;2024-03-22T14:04:04;20.17;;;9.45;;
64816;SDS011;69411;45.656;11.740;2024-03-22T14:06:31;15.13;;;8.25;;
64816;SDS011;69411;45.656;11.740;2024-03-22T14:08:57;14.98;;;9.02;;
64816;SDS011;69411;45.656;11.740;2024-03-22T14:11:27;15.35;;;8.38;;
64816;SDS011;69411;45.656;11.740;2024-03-22T14:13:58;13.90;;;7.88;;